Ashley Falls, Massachusetts
Current Conditions -  °F | °C
As of 7:21 AM on Sunday 23 Nov 2014 (Local Time) from KPSF Reporting Station
Light Rain Light Rain  
Wind Chill:   Ceiling: 2700
Heat Index:   Visibility: 2.5mi
Dew Point:   Wind: 0mph
Humidity: 92%   Direction: NA
Pressure: 30.09"   Gusts: NA
Location:  42.06°N, 73.34°W
Report Text: KPSF 231221Z AUTO 00000KT 2 1/2SM -RA BR OVC027 02/01 A3009 RMK AO2 RAB13 P0000 T00170006 $
Loading
Personal Weather Stations






























Interactive Weather Map New forecast layout! Learn more

10-Day Weather Forecast

Advertisements
Track Severe Weather on mobile